Time;durP1;ratioP1;P1;durP2;ratioP2;P2;SDS_P1;SDS_P2;PMS_P1;PMS_P2;Temp;Humidity;BMP_temperature;BMP_pressure;BME280_temperature;BME280_humidity;BME280_pressure;Samples;Min_cycle;Max_cycle;Signal;HPM_P1;HPM_P2
2022/05/04 00:00:09;;;;;;;5.03;4.55;;;;;;;;;;4987146;28;20052;-79
2022/05/04 00:02:40;;;;;;;5.28;4.85;;;;;;;;;;4984452;28;20062;-79
2022/05/04 00:05:09;;;;;;;5.60;5.20;;;;;;;;;;4985280;28;20046;-79
2022/05/04 00:07:39;;;;;;;5.30;4.70;;;;;;;;;;4983152;28;20039;-79
2022/05/04 00:10:07;;;;;;;5.97;5.32;;;;;;;;;;4976191;28;20515;-79
2022/05/04 00:12:35;;;;;;;7.65;4.57;;;;;;;;;;4995330;28;20077;-79
2022/05/04 00:15:02;;;;;;;5.82;4.93;;;;;;;;;;4979093;28;20076;-79
2022/05/04 00:17:30;;;;;;;5.40;4.88;;;;;;;;;;4977121;28;20054;-79
2022/05/04 00:19:58;;;;;;;5.10;4.70;;;;;;;;;;4944855;28;20070;-79
2022/05/04 00:22:26;;;;;;;4.80;4.45;;;;;;;;;;4977687;28;20442;-79
2022/05/04 00:24:54;;;;;;;5.65;5.13;;;;;;;;;;4995068;28;20388;-79
2022/05/04 00:27:21;;;;;;;4.85;4.45;;;;;;;;;;4994703;28;20459;-79
2022/05/04 00:29:49;;;;;;;4.80;4.40;;;;;;;;;;4974791;28;20042;-79
2022/05/04 00:32:17;;;;;;;4.72;4.18;;;;;;;;;;4974820;28;20046;-79
2022/05/04 00:34:44;;;;;;;5.30;4.80;;;;;;;;;;4998580;28;20042;-79
2022/05/04 00:37:12;;;;;;;5.00;4.60;;;;;;;;;;5003266;28;20046;-79
2022/05/04 00:39:39;;;;;;;6.10;4.82;;;;;;;;;;4994052;28;20046;-79
2022/05/04 00:42:10;;;;;;;4.90;4.50;;;;;;;;;;5010021;28;20057;-79
2022/05/04 00:44:38;;;;;;;5.03;4.28;;;;;;;;;;4995783;28;20045;-79
2022/05/04 00:47:06;;;;;;;4.80;4.20;;;;;;;;;;4996432;28;20519;-79
2022/05/04 00:49:34;;;;;;;3.92;3.63;;;;;;;;;;4975424;28;20042;-79
2022/05/04 00:52:03;;;;;;;3.88;3.58;;;;;;;;;;4992065;28;20466;-79
2022/05/04 00:54:31;;;;;;;4.25;3.88;;;;;;;;;;5012044;28;20073;-79
2022/05/04 00:56:59;;;;;;;5.55;4.00;;;;;;;;;;4977770;28;20183;-79
2022/05/04 00:59:27;;;;;;;4.22;3.92;;;;;;;;;;4994547;28;20049;-79
2022/05/04 01:01:54;;;;;;;4.25;3.85;;;;;;;;;;4950187;28;20045;-79
2022/05/04 01:04:22;;;;;;;4.32;3.85;;;;;;;;;;4981111;28;20122;-78
2022/05/04 01:06:50;;;;;;;4.18;3.83;;;;;;;;;;4959564;28;20065;-79
2022/05/04 01:09:16;;;;;;;5.13;3.90;;;;;;;;;;4974629;28;20403;-79
2022/05/04 01:11:43;;;;;;;4.30;3.75;;;;;;;;;;4983231;28;20144;-78
2022/05/04 01:14:12;;;;;;;4.53;4.10;;;;;;;;;;4957391;28;20372;-79
2022/05/04 01:16:41;;;;;;;4.28;3.88;;;;;;;;;;4971482;28;20034;-79
2022/05/04 01:19:09;;;;;;;4.40;4.00;;;;;;;;;;4956081;28;20122;-79
2022/05/04 01:21:36;;;;;;;4.75;4.30;;;;;;;;;;4975649;28;20054;-79
2022/05/04 01:24:04;;;;;;;4.25;3.88;;;;;;;;;;4990067;28;20046;-79
2022/05/04 01:26:32;;;;;;;3.85;3.55;;;;;;;;;;4974214;28;20061;-79
2022/05/04 01:29:01;;;;;;;4.88;4.15;;;;;;;;;;4986386;28;20050;-78
2022/05/04 01:31:28;;;;;;;5.05;4.03;;;;;;;;;;4986505;28;20506;-78
2022/05/04 01:33:56;;;;;;;3.92;3.70;;;;;;;;;;4971323;28;20077;-78
2022/05/04 01:36:24;;;;;;;4.18;3.78;;;;;;;;;;4972921;28;20129;-78
2022/05/04 01:38:51;;;;;;;4.13;3.83;;;;;;;;;;4988936;28;20038;-79
2022/05/04 01:44:05;;;;;;;4.40;4.10;;;;;;;;;;4989228;28;20068;-78
2022/05/04 01:46:32;;;;;;;4.30;3.90;;;;;;;;;;4970037;28;20461;-79
2022/05/04 01:48:59;;;;;;;5.03;4.35;;;;;;;;;;4955941;28;20038;-78
2022/05/04 01:51:27;;;;;;;5.35;4.07;;;;;;;;;;4989297;28;20076;-78
2022/05/04 01:53:54;;;;;;;5.78;4.18;;;;;;;;;;4989397;28;20404;-78
2022/05/04 01:56:22;;;;;;;4.70;4.30;;;;;;;;;;4987905;28;20050;-78
2022/05/04 01:58:50;;;;;;;8.45;4.47;;;;;;;;;;4988754;28;20065;-79
2022/05/04 02:01:17;;;;;;;4.75;4.45;;;;;;;;;;4985538;28;20513;-79
2022/05/04 02:03:45;;;;;;;5.65;4.50;;;;;;;;;;4971343;28;20053;-78
2022/05/04 02:06:13;;;;;;;7.03;4.68;;;;;;;;;;4987549;28;20050;-78
2022/05/04 02:08:41;;;;;;;5.53;4.70;;;;;;;;;;4971391;28;20038;-78
2022/05/04 02:11:09;;;;;;;5.10;4.60;;;;;;;;;;4970832;28;20041;-78
2022/05/04 02:13:36;;;;;;;5.10;4.60;;;;;;;;;;4979930;28;20031;-79
2022/05/04 02:16:05;;;;;;;5.30;4.78;;;;;;;;;;4985121;28;20066;-78
2022/05/04 02:18:33;;;;;;;5.25;4.75;;;;;;;;;;4983931;28;20065;-79
2022/05/04 02:21:01;;;;;;;5.00;4.47;;;;;;;;;;4953345;28;20100;-78
2022/05/04 02:23:28;;;;;;;5.30;4.80;;;;;;;;;;4969517;28;20050;-79
2022/05/04 02:25:56;;;;;;;5.30;4.80;;;;;;;;;;4972152;28;20055;-78
2022/05/04 02:28:23;;;;;;;5.55;5.05;;;;;;;;;;4983800;28;20095;-79
2022/05/04 02:30:50;;;;;;;6.40;5.40;;;;;;;;;;4991463;28;20061;-78
2022/05/04 02:33:18;;;;;;;6.03;4.85;;;;;;;;;;4950520;28;20042;-78
2022/05/04 02:38:37;;;;;;;5.60;5.07;;;;;;;;;;4985890;28;20038;-79
2022/05/04 02:41:04;;;;;;;6.60;5.82;;;;;;;;;;4986399;28;20388;-79
2022/05/04 02:43:32;;;;;;;7.90;5.38;;;;;;;;;;4969601;28;20050;-78
2022/05/04 02:46:12;;;;;;;8.15;5.57;;;;;;;;;;4971842;28;20157;-78
2022/05/04 02:48:39;;;;;;;6.28;5.68;;;;;;;;;;4952462;28;20046;-79
2022/05/04 02:51:06;;;;;;;6.53;5.60;;;;;;;;;;4984263;28;20049;-79
2022/05/04 02:53:34;;;;;;;8.55;5.82;;;;;;;;;;4969138;28;20462;-79
2022/05/04 02:56:02;;;;;;;6.82;6.10;;;;;;;;;;4985241;28;20521;-78
2022/05/04 02:58:29;;;;;;;6.78;5.40;;;;;;;;;;4985762;28;20566;-79
2022/05/04 03:02:26;;;;;;;5.63;5.13;;;;;;;;;;4991139;28;20050;-78
2022/05/04 03:03:54;;;;;;;5.95;5.13;;;;;;;;;;4985851;28;20043;-79
2022/05/04 03:06:21;;;;;;;6.22;5.60;;;;;;;;;;4967713;28;20046;-78
2022/05/04 03:08:48;;;;;;;7.18;5.75;;;;;;;;;;4984456;28;20050;-79
2022/05/04 03:14:02;;;;;;;6.68;5.55;;;;;;;;;;4969041;28;20511;-79
2022/05/04 03:16:30;;;;;;;17.30;6.07;;;;;;;;;;4974121;28;20554;-79
2022/05/04 03:18:57;;;;;;;6.57;5.38;;;;;;;;;;4972861;28;20046;-79
2022/05/04 03:21:24;;;;;;;6.18;5.60;;;;;;;;;;4988322;28;20046;-78
2022/05/04 03:23:52;;;;;;;5.90;5.30;;;;;;;;;;4971168;28;20042;-79
2022/05/04 03:26:19;;;;;;;9.20;5.55;;;;;;;;;;4992266;28;20471;-79
2022/05/04 03:28:47;;;;;;;11.02;5.22;;;;;;;;;;4987874;28;20045;-78
2022/05/04 03:31:14;;;;;;;6.53;5.10;;;;;;;;;;4968603;28;20070;-79
2022/05/04 03:33:42;;;;;;;5.43;4.85;;;;;;;;;;4970743;28;20403;-79
2022/05/04 03:36:09;;;;;;;5.72;5.22;;;;;;;;;;4986397;28;20061;-79
2022/05/04 03:38:37;;;;;;;5.65;5.05;;;;;;;;;;4978277;28;20405;-79
2022/05/04 03:41:04;;;;;;;6.28;5.65;;;;;;;;;;4995605;28;20100;-79
2022/05/04 03:43:32;;;;;;;7.47;5.68;;;;;;;;;;4992052;28;20060;-78
2022/05/04 03:46:25;;;;;;;5.38;4.97;;;;;;;;;;4958097;28;20525;-78
2022/05/04 03:48:56;;;;;;;7.72;5.45;;;;;;;;;;4965424;28;20149;-78
2022/05/04 03:51:28;;;;;;;4.70;4.20;;;;;;;;;;4972219;28;20046;-78
2022/05/04 03:53:55;;;;;;;6.85;4.97;;;;;;;;;;4969317;28;20047;-78
2022/05/04 03:56:22;;;;;;;7.65;5.05;;;;;;;;;;4985367;28;20417;-79
2022/05/04 03:58:50;;;;;;;6.15;5.40;;;;;;;;;;4980313;28;20510;-78
2022/05/04 04:01:31;;;;;;;6.18;5.03;;;;;;;;;;4987354;28;20172;-79
2022/05/04 04:07:16;;;;;;;5.88;5.13;;;;;;;;;;4988156;28;20093;-80
2022/05/04 04:09:44;;;;;;;8.13;5.00;;;;;;;;;;4988414;28;20112;-80
2022/05/04 04:12:11;;;;;;;5.60;5.10;;;;;;;;;;4988792;28;20035;-80
2022/05/04 04:14:39;;;;;;;5.93;4.95;;;;;;;;;;4980522;28;20043;-80
2022/05/04 04:17:06;;;;;;;6.35;5.75;;;;;;;;;;4968941;28;20054;-79
2022/05/04 04:19:34;;;;;;;7.22;5.32;;;;;;;;;;4962244;28;20039;-80
2022/05/04 04:22:01;;;;;;;5.72;5.32;;;;;;;;;;4990838;28;20102;-80
2022/05/04 04:24:28;;;;;;;5.20;4.78;;;;;;;;;;4978008;28;20050;-80
2022/05/04 04:26:56;;;;;;;8.43;5.50;;;;;;;;;;4977246;28;20093;-77
2022/05/04 04:29:23;;;;;;;5.60;5.10;;;;;;;;;;4976899;28;20043;-80
2022/05/04 04:32:01;;;;;;;8.98;5.40;;;;;;;;;;4980065;28;20043;-80
2022/05/04 04:34:31;;;;;;;5.25;4.75;;;;;;;;;;4981263;28;20556;-80
2022/05/04 04:36:59;;;;;;;5.43;4.93;;;;;;;;;;4985221;28;20073;-80
2022/05/04 04:39:43;;;;;;;5.78;5.32;;;;;;;;;;4974959;28;20581;-78
2022/05/04 04:42:12;;;;;;;5.90;5.40;;;;;;;;;;4998473;28;20070;-79
2022/05/04 04:44:41;;;;;;;7.07;5.23;;;;;;;;;;4982252;28;20078;-80
2022/05/04 04:47:08;;;;;;;6.22;5.10;;;;;;;;;;4950361;28;20050;-81
2022/05/04 04:49:36;;;;;;;5.10;4.70;;;;;;;;;;4963726;28;20042;-80
2022/05/04 04:52:10;;;;;;;7.07;4.68;;;;;;;;;;4968730;28;20066;-81
2022/05/04 04:58:30;;;;;;;7.45;5.53;;;;;;;;;;4944629;28;20054;-80
2022/05/04 05:00:58;;;;;;;5.78;5.03;;;;;;;;;;4990847;28;20052;-79
2022/05/04 05:03:25;;;;;;;6.00;5.55;;;;;;;;;;4999601;28;20042;-79
2022/05/04 05:12:13;;;;;;;6.45;5.95;;;;;;;;;;4933188;28;20515;-78
2022/05/04 05:17:28;;;;;;;6.28;5.78;;;;;;;;;;4982102;28;20049;-79
2022/05/04 05:19:56;;;;;;;6.45;5.85;;;;;;;;;;4979665;28;20038;-79
2022/05/04 05:22:23;;;;;;;5.75;5.18;;;;;;;;;;4952927;28;20333;-80
2022/05/04 05:24:50;;;;;;;5.72;5.22;;;;;;;;;;4963291;28;20035;-79
2022/05/04 05:27:18;;;;;;;6.47;5.78;;;;;;;;;;4994122;28;20066;-79
2022/05/04 05:29:48;;;;;;;7.68;5.30;;;;;;;;;;4948975;28;20507;-79
2022/05/04 05:32:16;;;;;;;6.35;5.72;;;;;;;;;;5000393;28;20477;-79
2022/05/04 05:34:44;;;;;;;6.53;5.65;;;;;;;;;;4991973;28;20443;-80
2022/05/04 05:37:20;;;;;;;6.47;5.88;;;;;;;;;;4993062;28;20084;-79
2022/05/04 05:39:49;;;;;;;8.05;5.63;;;;;;;;;;4944832;28;20047;-81
2022/05/04 05:45:43;;;;;;;7.07;6.47;;;;;;;;;;4967933;28;20061;-78
2022/05/04 05:48:11;;;;;;;6.88;6.28;;;;;;;;;;4991150;28;20050;-81
2022/05/04 05:50:41;;;;;;;7.40;6.55;;;;;;;;;;4983086;28;20033;-80
2022/05/04 05:53:08;;;;;;;7.93;7.22;;;;;;;;;;4985806;28;20125;-80
2022/05/04 05:55:35;;;;;;;8.20;7.03;;;;;;;;;;4992730;28;20075;-79
2022/05/04 05:58:03;;;;;;;7.78;7.07;;;;;;;;;;4954936;28;20048;-79
2022/05/04 06:00:30;;;;;;;7.40;6.78;;;;;;;;;;4993026;28;20086;-80
2022/05/04 06:02:58;;;;;;;7.88;6.38;;;;;;;;;;4971719;28;20050;-80
2022/05/04 06:05:25;;;;;;;6.93;6.10;;;;;;;;;;4971456;28;20042;-79
2022/05/04 06:07:52;;;;;;;8.40;5.97;;;;;;;;;;4985201;28;20042;-80
2022/05/04 06:10:20;;;;;;;6.28;5.68;;;;;;;;;;4973798;28;20065;-79
2022/05/04 06:13:09;;;;;;;6.75;6.18;;;;;;;;;;4992854;28;20048;-79
2022/05/04 06:16:40;;;;;;;7.47;5.50;;;;;;;;;;4939953;28;20038;-80
2022/05/04 06:20:01;;;;;;;7.60;5.60;;;;;;;;;;4977408;28;20153;-79
2022/05/04 06:22:38;;;;;;;6.03;5.53;;;;;;;;;;4989387;28;20088;-79
2022/05/04 06:25:14;;;;;;;6.03;5.47;;;;;;;;;;4974756;28;20054;-79
2022/05/04 06:28:00;;;;;;;5.80;5.10;;;;;;;;;;4964772;28;20524;-79
2022/05/04 06:37:08;;;;;;;5.05;4.55;;;;;;;;;;4968563;28;20633;-80
2022/05/04 06:43:14;;;;;;;5.95;5.35;;;;;;;;;;4975347;28;20042;-80
2022/05/04 06:45:49;;;;;;;5.22;4.82;;;;;;;;;;4970170;28;20057;-80
2022/05/04 06:48:17;;;;;;;9.23;5.50;;;;;;;;;;4982881;28;20137;-80
2022/05/04 06:50:44;;;;;;;5.50;5.00;;;;;;;;;;4966582;28;20069;-81
2022/05/04 06:53:12;;;;;;;5.90;5.47;;;;;;;;;;4962125;28;20555;-78
2022/05/04 06:55:42;;;;;;;6.97;5.50;;;;;;;;;;4953170;28;20066;-80
2022/05/04 06:58:09;;;;;;;5.50;5.00;;;;;;;;;;4990705;28;20307;-79
2022/05/04 07:00:37;;;;;;;5.53;5.03;;;;;;;;;;4979169;28;20042;-79
2022/05/04 07:03:04;;;;;;;6.25;5.72;;;;;;;;;;4962006;28;20089;-79
2022/05/04 07:05:31;;;;;;;8.07;6.20;;;;;;;;;;4976494;28;20042;-80
2022/05/04 07:07:59;;;;;;;7.07;6.50;;;;;;;;;;4971286;28;20566;-80
2022/05/04 07:10:26;;;;;;;7.50;6.40;;;;;;;;;;4990675;28;20121;-80
2022/05/04 07:12:54;;;;;;;6.53;6.00;;;;;;;;;;4958873;28;20574;-80
2022/05/04 07:15:21;;;;;;;5.85;5.35;;;;;;;;;;4948578;28;20051;-80
2022/05/04 07:17:49;;;;;;;6.38;5.88;;;;;;;;;;4991321;28;20049;-80
2022/05/04 07:20:16;;;;;;;7.20;6.60;;;;;;;;;;4990319;28;20058;-80
2022/05/04 07:22:44;;;;;;;5.45;4.97;;;;;;;;;;4968451;28;20042;-79
2022/05/04 07:25:24;;;;;;;6.85;5.25;;;;;;;;;;4974634;28;20485;-80
2022/05/04 07:27:59;;;;;;;6.38;5.80;;;;;;;;;;4954518;28;20042;-80
2022/05/04 07:30:38;;;;;;;5.25;4.75;;;;;;;;;;4989412;28;20058;-79
2022/05/04 07:33:48;;;;;;;5.82;5.10;;;;;;;;;;4966420;28;20050;-80
2022/05/04 07:36:15;;;;;;;5.20;4.80;;;;;;;;;;4991013;28;20061;-79
2022/05/04 07:38:43;;;;;;;5.68;5.15;;;;;;;;;;4970446;28;20039;-81
2022/05/04 07:43:57;;;;;;;5.20;4.80;;;;;;;;;;4957528;28;20058;-80
2022/05/04 07:46:27;;;;;;;5.57;4.97;;;;;;;;;;4958945;28;20538;-80
2022/05/04 07:48:55;;;;;;;7.10;5.57;;;;;;;;;;4978593;28;20038;-80
2022/05/04 07:51:23;;;;;;;5.80;5.40;;;;;;;;;;4987755;28;20050;-81
2022/05/04 07:53:50;;;;;;;5.30;4.90;;;;;;;;;;4998231;28;20076;-79
2022/05/04 07:56:18;;;;;;;5.28;4.85;;;;;;;;;;5012206;28;20057;-79
2022/05/04 07:58:45;;;;;;;6.43;5.05;;;;;;;;;;5014374;28;20115;-80
2022/05/04 08:04:16;;;;;;;8.52;5.40;;;;;;;;;;4993707;28;20057;-79
2022/05/04 08:06:44;;;;;;;5.50;5.00;;;;;;;;;;4993491;28;20104;-78
2022/05/04 08:09:11;;;;;;;5.20;4.70;;;;;;;;;;4975788;28;20058;-79
2022/05/04 08:11:39;;;;;;;4.72;4.43;;;;;;;;;;4976574;28;20051;-79
2022/05/04 08:14:07;;;;;;;5.13;4.72;;;;;;;;;;4994261;28;20467;-80
2022/05/04 08:16:35;;;;;;;5.05;4.65;;;;;;;;;;4970811;28;20407;-79
2022/05/04 08:19:06;;;;;;;4.78;4.47;;;;;;;;;;4984991;28;20040;-80
2022/05/04 08:21:39;;;;;;;8.23;5.22;;;;;;;;;;4956669;28;20045;-81
2022/05/04 08:24:10;;;;;;;6.80;5.18;;;;;;;;;;5019152;28;20177;-79
2022/05/04 08:26:43;;;;;;;8.77;5.07;;;;;;;;;;4988533;28;20062;-80
2022/05/04 08:29:11;;;;;;;5.15;4.75;;;;;;;;;;4996084;28;20058;-79
2022/05/04 08:31:39;;;;;;;5.40;4.95;;;;;;;;;;4972068;28;20053;-79
2022/05/04 08:34:07;;;;;;;5.60;4.50;;;;;;;;;;5011949;23;20046;-81
2022/05/04 08:36:38;;;;;;;5.30;4.80;;;;;;;;;;5018267;28;20052;-80
2022/05/04 08:39:09;;;;;;;4.80;4.40;;;;;;;;;;5018896;28;20046;-81
2022/05/04 08:41:41;;;;;;;13.73;4.82;;;;;;;;;;4985767;28;20425;-80
2022/05/04 08:44:08;;;;;;;;;;;;;;;;;;4983920;28;20068;-80
2022/05/04 08:46:39;;;;;;;8.70;4.57;;;;;;;;;;5015852;28;19961;-83
2022/05/04 08:49:07;;;;;;;5.00;4.60;;;;;;;;;;5005699;28;20067;-81
2022/05/04 08:51:36;;;;;;;5.13;4.70;;;;;;;;;;5037817;28;20374;-81
2022/05/04 08:54:08;;;;;;;4.80;4.45;;;;;;;;;;5028435;28;20057;-81
2022/05/04 08:56:36;;;;;;;5.38;4.85;;;;;;;;;;5033154;28;20105;-81
2022/05/04 08:59:04;;;;;;;4.40;4.10;;;;;;;;;;5006396;28;20078;-82
2022/05/04 09:01:31;;;;;;;5.60;5.07;;;;;;;;;;5020650;28;20049;-81
2022/05/04 09:03:59;;;;;;;5.22;4.82;;;;;;;;;;5048480;28;20053;-81
2022/05/04 09:06:28;;;;;;;6.30;5.70;;;;;;;;;;5048317;28;20053;-82
2022/05/04 09:08:57;;;;;;;6.03;4.90;;;;;;;;;;5033352;28;20053;-82
2022/05/04 09:11:26;;;;;;;4.70;4.30;;;;;;;;;;5028445;28;20045;-79
2022/05/04 09:13:54;;;;;;;4.80;4.43;;;;;;;;;;5012356;28;20096;-80
2022/05/04 09:16:40;;;;;;;5.50;4.65;;;;;;;;;;5009092;28;20045;-80
2022/05/04 09:19:08;;;;;;;4.93;4.53;;;;;;;;;;5028071;28;20045;-80
2022/05/04 09:21:36;;;;;;;4.05;3.75;;;;;;;;;;5010058;28;20113;-81
2022/05/04 09:24:05;;;;;;;6.30;4.38;;;;;;;;;;5008130;28;20042;-81
2022/05/04 09:26:38;;;;;;;4.00;3.65;;;;;;;;;;5026654;28;20057;-81
2022/05/04 09:29:06;;;;;;;3.72;3.53;;;;;;;;;;5025514;28;20068;-81
2022/05/04 09:31:33;;;;;;;3.80;3.50;;;;;;;;;;5012173;28;20046;-83
2022/05/04 09:34:02;;;;;;;3.70;3.38;;;;;;;;;;5015806;28;20049;-82
2022/05/04 09:36:31;;;;;;;4.65;4.13;;;;;;;;;;5032000;28;20087;-81
2022/05/04 09:44:54;;;;;;;3.47;3.10;;;;;;;;;;5007285;28;20038;-81
2022/05/04 09:47:22;;;;;;;3.63;3.33;;;;;;;;;;5003929;28;20042;-82
2022/05/04 09:49:53;;;;;;;4.68;3.40;;;;;;;;;;5023661;28;20073;-82
2022/05/04 09:52:23;;;;;;;3.53;3.25;;;;;;;;;;5023611;28;20038;-81
2022/05/04 09:54:52;;;;;;;3.22;3.00;;;;;;;;;;5008569;28;20046;-82
2022/05/04 09:57:20;;;;;;;5.40;3.10;;;;;;;;;;5025255;28;20049;-81
2022/05/04 09:59:50;;;;;;;4.03;3.53;;;;;;;;;;5016254;28;20136;-81
2022/05/04 10:02:18;;;;;;;5.20;3.30;;;;;;;;;;5023520;28;20077;-81
2022/05/04 10:04:47;;;;;;;3.40;3.20;;;;;;;;;;5020433;28;20049;-83
2022/05/04 10:07:15;;;;;;;3.50;3.20;;;;;;;;;;5017643;28;20104;-82
2022/05/04 10:09:42;;;;;;;2.78;2.60;;;;;;;;;;5019177;28;20069;-81
2022/05/04 10:12:10;;;;;;;8.55;3.13;;;;;;;;;;5001199;28;20073;-81
2022/05/04 10:14:39;;;;;;;3.00;2.80;;;;;;;;;;4985545;28;20085;-80
2022/05/04 10:17:11;;;;;;;7.97;4.30;;;;;;;;;;4992481;28;20117;-82
2022/05/04 10:19:45;;;;;;;3.10;2.90;;;;;;;;;;5002757;28;20060;-82
2022/05/04 10:22:17;;;;;;;2.40;2.30;;;;;;;;;;5001062;28;20117;-81
2022/05/04 10:24:45;;;;;;;2.47;2.28;;;;;;;;;;4983294;28;20092;-81
2022/05/04 10:27:20;;;;;;;3.97;2.63;;;;;;;;;;5014038;28;20046;-82
2022/05/04 10:32:36;;;;;;;7.90;2.65;;;;;;;;;;5039120;28;20034;-81
2022/05/04 10:35:42;;;;;;;3.95;2.55;;;;;;;;;;5024252;28;20076;-81
2022/05/04 10:38:11;;;;;;;2.00;1.90;;;;;;;;;;4943341;29;20043;-80
2022/05/04 10:40:44;;;;;;;2.95;2.40;;;;;;;;;;4958976;29;20047;-84
2022/05/04 10:43:12;;;;;;;3.65;2.30;;;;;;;;;;4972401;28;20048;-82
2022/05/04 10:45:41;;;;;;;2.35;2.13;;;;;;;;;;5019776;28;20060;-82
2022/05/04 10:48:20;;;;;;;2.50;2.08;;;;;;;;;;5045765;28;20045;-81
2022/05/04 10:50:48;;;;;;;2.72;2.03;;;;;;;;;;5012950;28;20110;-81
2022/05/04 10:53:24;;;;;;;3.92;2.00;;;;;;;;;;5009426;28;20038;-82
2022/05/04 10:56:01;;;;;;;2.20;2.10;;;;;;;;;;5013178;28;20047;-82
2022/05/04 10:58:32;;;;;;;2.20;2.10;;;;;;;;;;5002328;28;20042;-81
2022/05/04 11:01:20;;;;;;;3.33;2.10;;;;;;;;;;4984952;28;20060;-82
2022/05/04 11:04:03;;;;;;;10.65;2.53;;;;;;;;;;5021999;28;20293;-83
2022/05/04 11:06:32;;;;;;;1.83;1.75;;;;;;;;;;4990939;28;20298;-82
2022/05/04 11:09:05;;;;;;;1.80;1.70;;;;;;;;;;4990309;28;20058;-81
2022/05/04 11:11:33;;;;;;;3.42;2.00;;;;;;;;;;4992559;28;20223;-82
2022/05/04 11:14:01;;;;;;;1.63;1.60;;;;;;;;;;5025292;28;20092;-83
2022/05/04 11:16:29;;;;;;;4.40;2.10;;;;;;;;;;5002441;28;20310;-81
2022/05/04 11:18:58;;;;;;;6.20;2.67;;;;;;;;;;5025531;28;20073;-82
2022/05/04 11:21:26;;;;;;;3.67;1.70;;;;;;;;;;5024743;28;20060;-81
2022/05/04 11:23:56;;;;;;;2.72;1.60;;;;;;;;;;4985730;28;20054;-81
2022/05/04 11:26:28;;;;;;;2.15;1.95;;;;;;;;;;5016211;28;20454;-82
2022/05/04 11:28:55;;;;;;;;;;;;;;;;;;4979629;28;20093;-80
2022/05/04 11:31:22;;;;;;;1.73;1.63;;;;;;;;;;4999184;28;19963;-82
2022/05/04 11:33:50;;;;;;;2.35;1.73;;;;;;;;;;5007879;28;20046;-81
2022/05/04 11:36:22;;;;;;;10.85;1.73;;;;;;;;;;5031069;28;20381;-81
2022/05/04 11:38:50;;;;;;;2.17;1.90;;;;;;;;;;4991497;28;20038;-81
2022/05/04 11:41:18;;;;;;;1.77;1.67;;;;;;;;;;5017721;28;20405;-81
2022/05/04 11:43:47;;;;;;;2.10;1.80;;;;;;;;;;4997487;28;20531;-81
2022/05/04 11:46:15;;;;;;;3.25;1.77;;;;;;;;;;4989096;28;20470;-81
2022/05/04 11:48:44;;;;;;;3.45;1.83;;;;;;;;;;4999489;28;20056;-80
2022/05/04 11:51:13;;;;;;;4.65;1.80;;;;;;;;;;4993775;28;20510;-81
2022/05/04 11:53:40;;;;;;;1.80;1.60;;;;;;;;;;4991114;28;20070;-82
2022/05/04 11:56:09;;;;;;;1.48;1.45;;;;;;;;;;5001481;28;20046;-81
2022/05/04 11:58:41;;;;;;;4.88;1.60;;;;;;;;;;5018835;28;20057;-81
2022/05/04 12:01:10;;;;;;;1.75;1.65;;;;;;;;;;4998076;28;20049;-82
2022/05/04 12:03:41;;;;;;;8.15;2.67;;;;;;;;;;4998578;28;20052;-81
2022/05/04 12:06:10;;;;;;;3.70;1.50;;;;;;;;;;5005291;28;20710;-83
2022/05/04 12:08:39;;;;;;;1.63;1.40;;;;;;;;;;4997294;28;20050;-82
2022/05/04 12:11:07;;;;;;;3.30;1.60;;;;;;;;;;5024144;28;20054;-82
2022/05/04 12:13:39;;;;;;;1.60;1.50;;;;;;;;;;4984936;28;20072;-82
2022/05/04 12:16:07;;;;;;;2.13;1.70;;;;;;;;;;5009357;28;20058;-81
2022/05/04 12:18:36;;;;;;;1.63;1.40;;;;;;;;;;4997934;28;20098;-82
2022/05/04 12:21:05;;;;;;;5.38;1.42;;;;;;;;;;5004930;28;20045;-81
2022/05/04 12:23:32;;;;;;;1.55;1.20;;;;;;;;;;5014389;28;20061;-79
2022/05/04 12:26:01;;;;;;;1.85;1.27;;;;;;;;;;4996739;28;20088;-80
2022/05/04 12:28:28;;;;;;;4.35;1.63;;;;;;;;;;4974256;28;20035;-79
2022/05/04 12:33:43;;;;;;;4.00;1.70;;;;;;;;;;5013175;28;20066;-81
2022/05/04 12:36:12;;;;;;;2.45;1.45;;;;;;;;;;5014953;28;20070;-80
2022/05/04 12:38:46;;;;;;;4.10;1.70;;;;;;;;;;4973837;28;20096;-80
2022/05/04 12:41:16;;;;;;;2.13;1.60;;;;;;;;;;5005998;28;20050;-81
2022/05/04 12:43:44;;;;;;;1.75;1.23;;;;;;;;;;4981570;28;20066;-82
2022/05/04 12:46:13;;;;;;;3.03;1.20;;;;;;;;;;4997062;28;20045;-82
2022/05/04 12:48:42;;;;;;;1.52;1.25;;;;;;;;;;5013466;28;20046;-82
2022/05/04 12:51:10;;;;;;;1.85;1.20;;;;;;;;;;4999131;28;20656;-82
2022/05/04 12:53:40;;;;;;;1.10;1.05;;;;;;;;;;4998361;28;20042;-80
2022/05/04 12:58:55;;;;;;;1.60;1.30;;;;;;;;;;4986327;28;20054;-81
2022/05/04 13:01:23;;;;;;;1.73;1.63;;;;;;;;;;5003886;28;20502;-82
2022/05/04 13:03:52;;;;;;;3.85;1.55;;;;;;;;;;4984189;28;20072;-82
2022/05/04 13:06:21;;;;;;;1.95;1.85;;;;;;;;;;5017503;28;20079;-80
2022/05/04 13:08:49;;;;;;;1.98;1.70;;;;;;;;;;5003184;28;20212;-81
2022/05/04 13:11:17;;;;;;;4.15;1.85;;;;;;;;;;5001792;28;20233;-82
2022/05/04 13:13:44;;;;;;;5.47;1.67;;;;;;;;;;5000722;28;20050;-81
2022/05/04 13:16:12;;;;;;;2.70;1.88;;;;;;;;;;5003962;28;20045;-82
2022/05/04 13:18:40;;;;;;;1.75;1.60;;;;;;;;;;5001908;28;20055;-82
2022/05/04 13:21:07;;;;;;;3.63;1.95;;;;;;;;;;4987336;28;20077;-82
2022/05/04 13:23:35;;;;;;;3.35;1.63;;;;;;;;;;5015225;28;20052;-81
2022/05/04 13:26:03;;;;;;;3.97;1.80;;;;;;;;;;5002211;28;20061;-81
2022/05/04 13:28:33;;;;;;;2.97;1.70;;;;;;;;;;5000677;28;20053;-82
2022/05/04 13:31:01;;;;;;;2.43;1.77;;;;;;;;;;5025947;28;20049;-82
2022/05/04 13:33:31;;;;;;;5.55;2.30;;;;;;;;;;5022583;28;20304;-82
2022/05/04 13:36:01;;;;;;;3.15;1.83;;;;;;;;;;4990692;28;20485;-81
2022/05/04 13:38:28;;;;;;;1.80;1.70;;;;;;;;;;5017166;28;20045;-80
2022/05/04 13:40:57;;;;;;;1.77;1.67;;;;;;;;;;4978524;28;20123;-78
2022/05/04 13:43:24;;;;;;;1.63;1.52;;;;;;;;;;4997846;28;20049;-80
2022/05/04 13:45:52;;;;;;;3.05;1.80;;;;;;;;;;5011190;28;20073;-81
2022/05/04 13:48:20;;;;;;;1.60;1.42;;;;;;;;;;5014190;28;20526;-79
2022/05/04 13:53:34;;;;;;;1.90;1.50;;;;;;;;;;5004510;28;20048;-83
2022/05/04 13:56:01;;;;;;;4.25;1.88;;;;;;;;;;4993631;28;20060;-79
2022/05/04 13:58:29;;;;;;;2.90;1.70;;;;;;;;;;4995627;28;20092;-79
2022/05/04 14:00:56;;;;;;;3.15;2.28;;;;;;;;;;5003872;28;20444;-80
2022/05/04 14:03:24;;;;;;;3.17;1.60;;;;;;;;;;5012210;28;20133;-81
2022/05/04 14:05:51;;;;;;;2.03;1.75;;;;;;;;;;4993335;28;20122;-79
2022/05/04 14:08:19;;;;;;;2.70;1.98;;;;;;;;;;5012459;28;20379;-80
2022/05/04 14:10:48;;;;;;;3.47;1.63;;;;;;;;;;5028468;28;20174;-81
2022/05/04 14:13:24;;;;;;;5.75;2.25;;;;;;;;;;5042528;28;20505;-81
2022/05/04 14:16:00;;;;;;;1.40;1.30;;;;;;;;;;5037235;28;20071;-79
2022/05/04 14:18:30;;;;;;;1.50;1.40;;;;;;;;;;5000775;28;20065;-80
2022/05/04 14:20:59;;;;;;;3.87;1.60;;;;;;;;;;4985286;28;20050;-80
2022/05/04 14:23:27;;;;;;;3.95;1.67;;;;;;;;;;4991454;28;20046;-80
2022/05/04 14:25:55;;;;;;;2.28;1.60;;;;;;;;;;5001113;28;20074;-79
2022/05/04 14:28:27;;;;;;;1.73;1.50;;;;;;;;;;5008803;28;20050;-80
2022/05/04 14:30:59;;;;;;;3.10;1.67;;;;;;;;;;4976717;28;20217;-81
2022/05/04 14:33:29;;;;;;;1.60;1.45;;;;;;;;;;4983875;28;20119;-81
2022/05/04 14:35:57;;;;;;;3.33;1.45;;;;;;;;;;5005386;23;20442;-80
2022/05/04 14:38:24;;;;;;;1.75;1.65;;;;;;;;;;4988471;28;20379;-80
2022/05/04 14:40:51;;;;;;;3.50;1.48;;;;;;;;;;4974663;28;20566;-80
2022/05/04 14:43:26;;;;;;;2.25;1.70;;;;;;;;;;4984050;28;20046;-81
2022/05/04 14:45:55;;;;;;;3.53;2.10;;;;;;;;;;4947413;28;20080;-82
2022/05/04 14:48:23;;;;;;;4.78;1.90;;;;;;;;;;4966538;28;20062;-82
2022/05/04 14:50:51;;;;;;;1.92;1.65;;;;;;;;;;4963334;28;20046;-80
2022/05/04 14:53:18;;;;;;;3.72;1.75;;;;;;;;;;4964229;28;20400;-82
2022/05/04 14:55:46;;;;;;;1.70;1.60;;;;;;;;;;4961544;28;20400;-80
2022/05/04 14:58:14;;;;;;;8.07;2.08;;;;;;;;;;4964490;28;20073;-80
2022/05/04 15:00:42;;;;;;;1.70;1.60;;;;;;;;;;4966258;28;20487;-80
2022/05/04 15:05:58;;;;;;;2.30;1.70;;;;;;;;;;4981365;28;20082;-82
2022/05/04 15:08:27;;;;;;;2.33;1.80;;;;;;;;;;4961922;28;20053;-81
2022/05/04 15:10:54;;;;;;;3.35;1.65;;;;;;;;;;4965702;28;20054;-80
2022/05/04 15:13:22;;;;;;;1.90;1.73;;;;;;;;;;4980963;28;20053;-80
2022/05/04 15:15:49;;;;;;;2.83;2.10;;;;;;;;;;4950821;28;20054;-80
2022/05/04 15:18:17;;;;;;;2.30;1.70;;;;;;;;;;4978401;28;20077;-80
2022/05/04 15:20:45;;;;;;;1.98;1.70;;;;;;;;;;4980803;28;20034;-80
2022/05/04 15:23:12;;;;;;;1.58;1.40;;;;;;;;;;4946208;28;21811;-79
2022/05/04 15:25:41;;;;;;;2.00;1.80;;;;;;;;;;4963720;28;20038;-81
2022/05/04 15:28:09;;;;;;;1.90;1.70;;;;;;;;;;4980487;28;20074;-81
2022/05/04 15:30:36;;;;;;;3.30;1.98;;;;;;;;;;4983602;28;20132;-80
2022/05/04 15:33:04;;;;;;;2.05;1.90;;;;;;;;;;4982953;28;20046;-80
2022/05/04 15:35:31;;;;;;;2.22;1.92;;;;;;;;;;4979328;28;20046;-80
2022/05/04 15:37:58;;;;;;;1.88;1.77;;;;;;;;;;4969917;28;20096;-82
2022/05/04 15:40:25;;;;;;;2.28;1.92;;;;;;;;;;4991775;28;20081;-80
2022/05/04 15:42:59;;;;;;;2.38;2.17;;;;;;;;;;4974997;28;20442;-80
2022/05/04 15:45:26;;;;;;;1.98;1.80;;;;;;;;;;4991897;28;20038;-80
2022/05/04 15:47:54;;;;;;;2.92;1.65;;;;;;;;;;4989115;28;20050;-80
2022/05/04 15:50:39;;;;;;;2.78;1.55;;;;;;;;;;4996026;28;20038;-80
2022/05/04 15:53:07;;;;;;;1.77;1.67;;;;;;;;;;4973542;28;20043;-80
2022/05/04 15:55:34;;;;;;;1.77;1.67;;;;;;;;;;4988293;28;20049;-80
2022/05/04 15:58:02;;;;;;;2.85;1.85;;;;;;;;;;4974863;28;20050;-80
2022/05/04 16:00:30;;;;;;;2.15;1.58;;;;;;;;;;4972566;28;20265;-79